createdAt,value
2022-12-09T00:01:13.202Z,-0.26
2022-12-09T00:03:43.948Z,-0.02
2022-12-09T00:06:16.675Z,0.11
2022-12-09T00:08:45.135Z,0.14
2022-12-09T00:11:14.703Z,0.08
2022-12-09T00:13:42.792Z,-0.20
2022-12-09T00:16:13.348Z,-0.02
2022-12-09T00:18:41.740Z,0.14
2022-12-09T00:21:14.544Z,0.28
2022-12-09T00:23:42.893Z,0.31
2022-12-09T00:26:11.229Z,0.04
2022-12-09T00:28:41.018Z,0.08
2022-12-09T00:31:09.767Z,0.22
2022-12-09T00:33:37.744Z,0.28
2022-12-09T00:36:14.480Z,0.22
2022-12-09T00:38:43.384Z,-0.17
2022-12-09T00:41:12.177Z,-0.18
2022-12-09T00:43:42.391Z,-0.07
2022-12-09T00:46:11.200Z,-0.26
2022-12-09T00:48:39.660Z,-0.05
2022-12-09T00:51:08.842Z,0.07
2022-12-09T00:53:36.762Z,0.10
2022-12-09T00:56:04.825Z,0.07
2022-12-09T00:58:35.858Z,0.08
2022-12-09T01:01:05.394Z,-0.22
2022-12-09T01:03:33.879Z,-0.09
2022-12-09T01:06:02.160Z,-0.04
2022-12-09T01:08:32.762Z,-0.09
2022-12-09T01:11:01.107Z,-0.07
2022-12-09T01:13:29.123Z,-0.12
2022-12-09T01:15:57.231Z,-0.16
2022-12-09T01:18:26.901Z,-0.21
2022-12-09T01:20:58.286Z,-0.42
2022-12-09T01:23:26.754Z,-0.76
2022-12-09T01:25:54.784Z,-0.49
2022-12-09T01:28:22.564Z,-0.50
2022-12-09T01:30:50.844Z,-0.72
2022-12-09T01:33:18.761Z,-0.94
2022-12-09T01:35:48.049Z,-0.72
2022-12-09T01:38:17.281Z,-0.56
2022-12-09T01:40:47.735Z,-0.44
2022-12-09T01:43:19.127Z,-0.48
2022-12-09T01:45:47.871Z,-0.34
2022-12-09T01:48:19.510Z,-0.33
2022-12-09T01:50:53.722Z,-0.42
2022-12-09T01:53:26.191Z,-0.36
2022-12-09T01:55:59.382Z,-0.35
2022-12-09T01:58:29.786Z,-0.47
2022-12-09T02:00:57.892Z,-0.46
2022-12-09T02:03:25.947Z,-0.37
2022-12-09T02:05:55.243Z,-0.27
2022-12-09T02:08:23.535Z,-0.23
2022-12-09T02:11:06.301Z,-0.22
2022-12-09T02:13:48.472Z,-0.66
2022-12-09T02:16:21.007Z,-0.97
2022-12-09T02:18:54.556Z,-1.13
2022-12-09T02:21:29.755Z,-1.06
2022-12-09T02:24:04.756Z,-1.01
2022-12-09T02:26:42.798Z,-0.83
2022-12-09T02:29:37.360Z,-0.83
2022-12-09T02:32:43.928Z,-0.64
2022-12-09T02:35:24.491Z,-0.57
2022-12-09T02:37:59.553Z,-0.60
2022-12-09T02:40:34.881Z,-0.59
2022-12-09T02:43:07.212Z,-0.66
2022-12-09T02:45:38.297Z,-0.73
2022-12-09T02:48:07.992Z,-0.87
2022-12-09T02:50:39.522Z,-1.62
2022-12-09T02:53:11.905Z,-1.34
2022-12-09T02:55:44.020Z,-1.30
2022-12-09T02:58:12.450Z,-1.31
2022-12-09T03:00:41.834Z,-1.18
2022-12-09T03:03:16.639Z,-0.98
2022-12-09T03:05:52.065Z,-1.28
2022-12-09T03:08:29.834Z,-1.43
2022-12-09T03:11:01.222Z,-1.22
2022-12-09T03:13:43.327Z,-1.05
2022-12-09T03:16:18.430Z,-1.08
2022-12-09T03:18:50.006Z,-1.33
2022-12-09T03:21:23.654Z,-1.56
2022-12-09T03:23:54.245Z,-1.29
2022-12-09T03:26:23.485Z,-1.31
2022-12-09T03:28:54.607Z,-1.31
2022-12-09T03:31:28.155Z,-1.32
2022-12-09T03:34:03.984Z,-1.30
2022-12-09T03:36:37.268Z,-1.14
2022-12-09T03:39:09.734Z,-1.01
2022-12-09T03:41:42.906Z,-1.23
2022-12-09T03:44:17.924Z,-1.72
2022-12-09T03:46:47.002Z,-1.50
2022-12-09T03:49:15.955Z,-1.34
2022-12-09T03:51:49.111Z,-1.93
2022-12-09T03:54:23.175Z,-1.65
2022-12-09T03:56:54.945Z,-1.50
2022-12-09T03:59:24.965Z,-1.35
2022-12-09T04:01:53.772Z,-1.40
2022-12-09T04:04:22.673Z,-1.34
2022-12-09T04:06:54.378Z,-1.24
2022-12-09T04:09:23.125Z,-1.12
2022-12-09T04:11:51.103Z,-1.06
2022-12-09T04:14:19.343Z,-1.00
2022-12-09T04:16:47.488Z,-1.09
2022-12-09T04:19:15.640Z,-1.35
2022-12-09T04:21:44.046Z,-1.58
2022-12-09T04:24:13.615Z,-2.25
2022-12-09T04:26:41.399Z,-2.06
2022-12-09T04:29:10.701Z,-1.75
2022-12-09T04:31:38.871Z,-1.64
2022-12-09T04:34:09.609Z,-1.52
2022-12-09T04:36:39.053Z,-1.49
2022-12-09T04:39:07.538Z,-1.92
2022-12-09T04:41:37.540Z,-1.70
2022-12-09T04:44:05.891Z,-1.42
2022-12-09T04:46:34.162Z,-1.27
2022-12-09T04:49:02.218Z,-1.19
2022-12-09T04:51:35.770Z,-1.13
2022-12-09T04:54:07.693Z,-1.12
2022-12-09T04:56:36.901Z,-1.19
2022-12-09T04:59:06.270Z,-1.25
2022-12-09T05:01:37.151Z,-1.42
2022-12-09T05:04:05.640Z,-1.36
2022-12-09T05:06:33.810Z,-1.58
2022-12-09T05:09:04.673Z,-1.76
2022-12-09T05:11:33.851Z,-1.50
2022-12-09T05:14:03.683Z,-1.30
2022-12-09T05:16:31.824Z,-1.26
2022-12-09T05:19:01.439Z,-1.21
2022-12-09T05:21:30.052Z,-1.23
2022-12-09T05:23:59.573Z,-1.24
2022-12-09T05:26:27.753Z,-1.33
2022-12-09T05:28:56.065Z,-1.22
2022-12-09T05:31:25.502Z,-1.14
2022-12-09T05:33:54.133Z,-1.10
2022-12-09T05:36:25.301Z,-1.19
2022-12-09T05:38:54.048Z,-1.29
2022-12-09T05:41:23.086Z,-1.42
2022-12-09T05:43:54.144Z,-1.66
2022-12-09T05:46:22.908Z,-1.57
2022-12-09T05:48:52.634Z,-1.56
2022-12-09T05:51:25.431Z,-1.52
2022-12-09T05:53:54.095Z,-1.44
2022-12-09T05:56:24.350Z,-1.23
2022-12-09T05:58:54.730Z,-1.18
2022-12-09T06:01:23.762Z,-1.40
2022-12-09T06:03:55.354Z,-1.76
2022-12-09T06:06:26.725Z,-1.67
2022-12-09T06:08:57.374Z,-1.43
2022-12-09T06:11:26.892Z,-1.29
2022-12-09T06:14:00.338Z,-1.37
2022-12-09T06:16:30.781Z,-1.46
2022-12-09T06:19:00.791Z,-1.42
2022-12-09T06:21:29.183Z,-1.60
2022-12-09T06:23:57.446Z,-1.64
2022-12-09T06:26:27.802Z,-1.46
2022-12-09T06:28:57.715Z,-1.27
2022-12-09T06:31:26.037Z,-1.21
2022-12-09T06:33:56.526Z,-1.59
2022-12-09T06:36:28.055Z,-1.36
2022-12-09T06:39:04.529Z,-1.23
2022-12-09T06:41:33.965Z,-1.09
2022-12-09T06:44:02.016Z,-1.15
2022-12-09T06:46:30.500Z,-1.45
2022-12-09T06:48:58.575Z,-1.27
2022-12-09T06:51:28.175Z,-1.09
2022-12-09T06:53:56.678Z,-1.06
2022-12-09T06:56:27.674Z,-0.99
2022-12-09T06:58:56.082Z,-1.32
2022-12-09T07:01:26.237Z,-1.08
2022-12-09T07:03:58.180Z,-0.88
2022-12-09T07:06:29.852Z,-0.79
2022-12-09T07:09:01.004Z,-1.08
2022-12-09T07:11:29.667Z,-1.00
2022-12-09T07:13:58.309Z,-0.90
2022-12-09T07:16:26.836Z,-0.98
2022-12-09T07:18:55.641Z,-1.02
2022-12-09T07:21:25.716Z,-0.98
2022-12-09T07:23:55.420Z,-0.85
2022-12-09T07:26:25.671Z,-0.86
2022-12-09T07:28:53.756Z,-0.73
2022-12-09T07:31:23.462Z,-0.65
2022-12-09T07:33:52.867Z,-0.71
2022-12-09T07:36:22.493Z,-0.69
2022-12-09T07:38:51.069Z,-0.49
2022-12-09T07:41:20.927Z,-0.38
2022-12-09T07:43:51.649Z,-0.35
2022-12-09T07:46:21.746Z,-0.25
2022-12-09T07:48:51.047Z,-0.13
2022-12-09T07:51:19.336Z,-0.06
2022-12-09T07:53:48.737Z,-0.08
2022-12-09T07:56:18.565Z,-0.13
2022-12-09T07:58:49.057Z,-0.49
2022-12-09T08:01:19.017Z,-0.25
2022-12-09T08:03:48.534Z,-0.06
2022-12-09T08:06:19.278Z,-0.09
2022-12-09T08:08:47.650Z,0.10
2022-12-09T08:11:18.104Z,0.30
2022-12-09T08:13:48.239Z,0.32
2022-12-09T08:16:19.751Z,0.40
2022-12-09T08:18:48.106Z,0.61
2022-12-09T08:21:21.246Z,0.74
2022-12-09T08:23:50.081Z,0.65
2022-12-09T08:26:21.405Z,0.70
2022-12-09T08:28:51.646Z,0.47
2022-12-09T08:31:24.758Z,0.71
2022-12-09T08:33:55.130Z,0.84
2022-12-09T08:36:26.424Z,1.07
2022-12-09T08:38:55.275Z,1.18
2022-12-09T08:41:35.431Z,1.05
2022-12-09T08:44:07.369Z,1.15
2022-12-09T08:46:37.344Z,1.31
2022-12-09T08:49:06.336Z,1.58
2022-12-09T08:51:35.012Z,1.55
2022-12-09T08:54:06.944Z,1.33
2022-12-09T08:56:35.253Z,1.22
2022-12-09T08:59:05.159Z,1.27
2022-12-09T09:01:35.910Z,1.50
2022-12-09T09:04:07.555Z,1.54
2022-12-09T09:06:36.315Z,1.58
2022-12-09T09:09:05.737Z,1.60
2022-12-09T09:11:34.404Z,1.71
2022-12-09T09:14:06.675Z,1.74
2022-12-09T09:16:39.787Z,1.75
2022-12-09T09:19:08.136Z,1.59
2022-12-09T09:21:36.989Z,1.62
2022-12-09T09:24:10.443Z,1.63
2022-12-09T09:26:41.569Z,1.81
2022-12-09T09:29:12.661Z,1.90
2022-12-09T09:31:40.979Z,1.94
2022-12-09T09:34:09.246Z,2.06
2022-12-09T09:36:37.715Z,2.14
2022-12-09T09:39:06.125Z,2.26
2022-12-09T09:41:45.462Z,2.24
2022-12-09T09:44:23.267Z,2.33
2022-12-09T09:46:52.785Z,2.32
2022-12-09T09:49:30.976Z,1.99
2022-12-09T09:51:59.842Z,2.09
2022-12-09T09:54:28.068Z,1.79
2022-12-09T09:57:02.106Z,1.77
2022-12-09T09:59:42.011Z,1.67
2022-12-09T10:02:19.628Z,1.93
2022-12-09T10:05:04.688Z,2.18
2022-12-09T10:07:40.131Z,2.27
2022-12-09T10:10:22.981Z,2.32
2022-12-09T10:13:09.466Z,2.53
2022-12-09T10:15:50.556Z,2.36
2022-12-09T10:18:28.163Z,2.45
2022-12-09T10:20:57.274Z,2.22
2022-12-09T10:23:27.103Z,1.92
2022-12-09T10:25:59.567Z,2.22
2022-12-09T10:28:31.989Z,2.03
2022-12-09T10:31:01.770Z,2.12
2022-12-09T10:33:31.652Z,2.34
2022-12-09T10:36:00.795Z,2.43
2022-12-09T10:38:31.100Z,1.91
2022-12-09T10:41:03.733Z,2.00
2022-12-09T10:43:36.301Z,2.42
2022-12-09T10:46:18.064Z,2.70
2022-12-09T10:48:54.073Z,2.83
2022-12-09T10:51:25.827Z,2.66
2022-12-09T10:53:57.659Z,2.19
2022-12-09T10:56:29.167Z,2.32
2022-12-09T10:59:11.433Z,2.62
2022-12-09T11:01:51.913Z,2.42
2022-12-09T11:04:26.420Z,2.31
2022-12-09T11:06:59.789Z,1.85
2022-12-09T11:09:30.977Z,2.25
2022-12-09T11:12:00.419Z,2.03
2022-12-09T11:14:33.459Z,2.12
2022-12-09T11:17:16.988Z,2.40
2022-12-09T11:19:49.102Z,2.12
2022-12-09T11:22:39.129Z,2.53
2022-12-09T11:25:20.208Z,2.31
2022-12-09T11:27:52.281Z,2.23
2022-12-09T11:30:22.468Z,2.20
2022-12-09T11:32:58.760Z,2.30
2022-12-09T11:35:32.277Z,2.36
2022-12-09T11:38:14.021Z,2.74
2022-12-09T11:40:44.659Z,3.12
2022-12-09T11:43:12.886Z,3.30
2022-12-09T11:45:41.747Z,2.61
2022-12-09T11:48:34.967Z,3.04
2022-12-09T11:51:07.050Z,3.20
2022-12-09T11:53:40.621Z,2.95
2022-12-09T11:56:18.943Z,2.82
2022-12-09T11:58:51.420Z,2.53
2022-12-09T12:01:26.795Z,2.59
2022-12-09T12:03:57.809Z,2.73
2022-12-09T12:06:30.008Z,2.88
2022-12-09T12:09:03.851Z,2.43
2022-12-09T12:11:39.625Z,3.02
2022-12-09T12:14:16.856Z,3.06
2022-12-09T12:16:53.736Z,2.93
2022-12-09T12:19:30.104Z,2.69
2022-12-09T12:22:27.153Z,3.16
2022-12-09T12:25:24.818Z,3.19
2022-12-09T12:28:19.094Z,3.08
2022-12-09T12:30:55.421Z,3.09
2022-12-09T12:36:40.412Z,3.14
2022-12-09T12:39:22.085Z,2.92
2022-12-09T12:41:56.972Z,3.25
2022-12-09T12:44:54.756Z,3.50
2022-12-09T12:47:26.512Z,3.06
2022-12-09T12:50:11.204Z,2.79
2022-12-09T12:52:56.175Z,3.07
2022-12-09T12:55:42.367Z,2.97
2022-12-09T12:58:18.115Z,3.22
2022-12-09T13:01:01.200Z,2.99
2022-12-09T13:03:37.302Z,3.01
2022-12-09T13:06:06.017Z,3.37
2022-12-09T13:08:42.219Z,3.40
2022-12-09T13:11:16.056Z,2.87
2022-12-09T13:13:47.712Z,3.00
2022-12-09T13:16:20.259Z,3.12
2022-12-09T13:18:50.240Z,3.19
2022-12-09T13:21:18.932Z,3.40
2022-12-09T13:24:03.264Z,3.31
2022-12-09T13:26:42.560Z,3.42
2022-12-09T13:29:23.090Z,3.19
2022-12-09T13:32:00.166Z,3.51
2022-12-09T13:34:37.578Z,3.52
2022-12-09T13:37:06.121Z,3.45
2022-12-09T13:39:59.687Z,3.03
2022-12-09T13:42:52.618Z,3.20
2022-12-09T13:45:27.853Z,3.38
2022-12-09T13:47:56.729Z,3.33
2022-12-09T13:50:27.384Z,3.52
2022-12-09T13:52:57.867Z,3.31
2022-12-09T13:55:37.537Z,3.33
2022-12-09T13:58:27.255Z,2.97
2022-12-09T14:01:17.149Z,3.48
2022-12-09T14:03:55.679Z,3.56
2022-12-09T14:06:26.585Z,3.65
2022-12-09T14:08:57.948Z,3.38
2022-12-09T14:11:52.338Z,3.02
2022-12-09T14:14:56.514Z,2.58
2022-12-09T14:17:59.070Z,3.07
2022-12-09T14:20:30.869Z,2.82
2022-12-09T14:23:19.277Z,2.66
2022-12-09T14:26:07.095Z,2.67
2022-12-09T14:28:52.131Z,3.05
2022-12-09T14:31:44.856Z,2.95
2022-12-09T14:34:27.805Z,2.69
2022-12-09T14:37:05.642Z,2.93
2022-12-09T14:39:39.357Z,2.92
2022-12-09T14:42:14.228Z,3.08
2022-12-09T14:44:52.167Z,3.13
2022-12-09T14:47:24.574Z,2.66
2022-12-09T14:49:54.915Z,3.12
2022-12-09T14:52:29.872Z,2.86
2022-12-09T14:54:59.688Z,2.93
2022-12-09T14:57:33.984Z,3.03
2022-12-09T15:00:05.685Z,2.86
2022-12-09T15:02:37.137Z,2.68
2022-12-09T15:05:17.775Z,2.57
2022-12-09T15:07:46.450Z,2.80
2022-12-09T15:10:21.475Z,2.80
2022-12-09T15:12:52.320Z,2.56
2022-12-09T15:15:24.914Z,2.45
2022-12-09T15:17:56.417Z,2.37
2022-12-09T15:20:28.584Z,2.21
2022-12-09T15:23:01.401Z,2.44
2022-12-09T15:25:29.931Z,2.52
2022-12-09T15:28:00.129Z,2.45
2022-12-09T15:30:35.822Z,2.87
2022-12-09T15:33:04.853Z,2.95
2022-12-09T15:35:34.157Z,2.79
2022-12-09T15:38:05.930Z,2.59
2022-12-09T15:40:36.812Z,2.49
2022-12-09T15:43:11.643Z,2.77
2022-12-09T15:45:44.731Z,2.80
2022-12-09T15:48:18.720Z,2.86
2022-12-09T15:50:50.837Z,2.86
2022-12-09T15:53:24.171Z,2.96
2022-12-09T15:55:57.887Z,2.86
2022-12-09T15:58:30.590Z,3.05
2022-12-09T16:01:00.233Z,3.22
2022-12-09T16:03:30.537Z,3.33
2022-12-09T16:06:02.098Z,3.40
2022-12-09T16:08:34.291Z,3.45
2022-12-09T16:11:02.771Z,3.48
2022-12-09T16:13:30.769Z,3.49
2022-12-09T16:16:01.966Z,3.46
2022-12-09T16:18:34.576Z,3.40
2022-12-09T16:21:20.973Z,3.38
2022-12-09T16:23:52.968Z,3.48
2022-12-09T16:26:28.272Z,3.53
2022-12-09T16:28:59.631Z,3.53
2022-12-09T16:31:29.550Z,3.50
2022-12-09T16:33:58.389Z,3.57
2022-12-09T16:36:29.460Z,3.49
2022-12-09T16:39:42.936Z,3.60
2022-12-09T16:42:22.811Z,3.48
2022-12-09T16:44:51.050Z,3.53
2022-12-09T16:47:24.308Z,3.59
2022-12-09T16:49:52.777Z,3.65
2022-12-09T16:52:24.300Z,3.50
2022-12-09T16:54:52.732Z,3.57
2022-12-09T16:57:21.327Z,3.63
2022-12-09T16:59:50.907Z,3.47
2022-12-09T17:02:32.996Z,3.54
2022-12-09T17:05:03.290Z,3.38
2022-12-09T17:07:31.111Z,3.47
2022-12-09T17:09:59.018Z,3.52
2022-12-09T17:12:27.033Z,3.40
2022-12-09T17:14:54.982Z,3.45
2022-12-09T17:17:24.219Z,3.41
2022-12-09T17:19:52.227Z,3.26
2022-12-09T17:22:20.140Z,3.34
2022-12-09T17:24:48.107Z,3.46
2022-12-09T17:27:18.162Z,3.48
2022-12-09T17:29:46.542Z,3.50
2022-12-09T17:32:16.490Z,3.18
2022-12-09T17:34:45.770Z,3.21
2022-12-09T17:37:13.678Z,3.39
2022-12-09T17:39:41.510Z,3.33
2022-12-09T17:42:09.337Z,3.14
2022-12-09T17:44:37.228Z,3.25
2022-12-09T17:47:09.281Z,3.26
2022-12-09T17:49:38.089Z,3.08
2022-12-09T17:52:07.345Z,3.07
2022-12-09T17:54:35.139Z,3.16
2022-12-09T17:57:02.968Z,3.09
2022-12-09T17:59:30.771Z,3.20
2022-12-09T18:01:59.428Z,3.24
2022-12-09T18:04:27.213Z,3.16
2022-12-09T18:06:54.968Z,3.21
2022-12-09T18:09:24.351Z,3.27
2022-12-09T18:11:52.476Z,3.27
2022-12-09T18:14:22.728Z,3.34
2022-12-09T18:16:50.871Z,3.45
2022-12-09T18:19:20.712Z,3.56
2022-12-09T18:21:49.327Z,3.64
2022-12-09T18:24:17.147Z,3.48
2022-12-09T18:26:46.343Z,3.24
2022-12-09T18:29:14.728Z,3.41
2022-12-09T18:31:45.476Z,3.43
2022-12-09T18:34:13.288Z,3.44
2022-12-09T18:36:43.473Z,3.56
2022-12-09T18:39:11.258Z,3.65
2022-12-09T18:41:39.038Z,3.64
2022-12-09T18:44:08.820Z,3.67
2022-12-09T18:46:38.461Z,3.71
2022-12-09T18:49:08.646Z,3.67
2022-12-09T18:51:37.242Z,3.68
2022-12-09T18:54:06.060Z,3.75
2022-12-09T18:56:34.746Z,3.73
2022-12-09T18:59:07.413Z,3.58
2022-12-09T19:01:40.326Z,3.59
2022-12-09T19:04:13.489Z,3.69
2022-12-09T19:06:42.677Z,3.73
2022-12-09T19:09:12.841Z,3.72
2022-12-09T19:11:42.135Z,3.60
2022-12-09T19:14:10.624Z,3.66
2022-12-09T19:16:40.214Z,3.71
2022-12-09T19:19:10.374Z,3.69
2022-12-09T19:21:42.408Z,3.69
2022-12-09T19:24:15.003Z,3.73
2022-12-09T19:26:45.481Z,3.72
2022-12-09T19:29:14.567Z,3.74
2022-12-09T19:31:45.327Z,3.63
2022-12-09T19:34:17.644Z,3.75
2022-12-09T19:36:46.330Z,3.75
2022-12-09T19:39:15.254Z,3.77
2022-12-09T19:41:44.483Z,3.74
2022-12-09T19:44:21.624Z,3.70
2022-12-09T19:47:03.408Z,3.70
2022-12-09T19:49:31.220Z,3.64
2022-12-09T19:52:00.000Z,3.54
2022-12-09T19:54:29.731Z,3.55
2022-12-09T19:56:59.997Z,3.55
2022-12-09T19:59:28.333Z,3.63
2022-12-09T20:01:56.465Z,3.69
2022-12-09T20:07:18.699Z,3.78
2022-12-09T20:09:46.782Z,3.75
2022-12-09T20:12:17.057Z,3.74
2022-12-09T20:14:44.891Z,3.39
2022-12-09T20:17:12.889Z,3.33
2022-12-09T20:19:42.056Z,3.28
2022-12-09T20:22:09.899Z,3.41
2022-12-09T20:24:37.738Z,3.29
2022-12-09T20:27:05.626Z,3.47
2022-12-09T20:29:37.572Z,3.52
2022-12-09T20:32:06.735Z,3.62
2022-12-09T20:34:34.889Z,3.70
2022-12-09T20:37:04.282Z,3.75
2022-12-09T20:39:32.067Z,3.77
2022-12-09T20:42:00.279Z,3.69
2022-12-09T20:44:32.301Z,3.70
2022-12-09T20:47:00.281Z,3.58
2022-12-09T20:49:29.788Z,3.58
2022-12-09T20:51:57.556Z,3.44
2022-12-09T20:54:26.806Z,3.45
2022-12-09T20:56:54.763Z,3.54
2022-12-09T20:59:22.733Z,3.63
2022-12-09T21:01:50.617Z,3.64
2022-12-09T21:04:21.586Z,3.42
2022-12-09T21:06:49.702Z,3.51
2022-12-09T21:09:21.642Z,3.53
2022-12-09T21:11:51.328Z,3.28
2022-12-09T21:14:20.129Z,3.26
2022-12-09T21:16:50.397Z,3.12
2022-12-09T21:19:25.215Z,3.24
2022-12-09T21:21:53.893Z,3.09
2022-12-09T21:24:24.629Z,3.08
2022-12-09T21:26:55.352Z,3.28
2022-12-09T21:29:29.844Z,3.13
2022-12-09T21:32:00.087Z,2.84
2022-12-09T21:34:27.934Z,2.91
2022-12-09T21:36:55.682Z,3.19
2022-12-09T21:39:23.471Z,3.18
2022-12-09T21:41:51.301Z,2.95
2022-12-09T21:44:22.191Z,3.09
2022-12-09T21:46:49.960Z,3.03
2022-12-09T21:49:17.743Z,2.86
2022-12-09T21:51:45.923Z,3.12
2022-12-09T21:54:13.673Z,3.10
2022-12-09T21:56:41.773Z,3.14
2022-12-09T21:59:11.855Z,2.92
2022-12-09T22:01:42.892Z,2.99
2022-12-09T22:04:12.961Z,3.17
2022-12-09T22:06:46.399Z,3.37
2022-12-09T22:09:14.295Z,3.34
2022-12-09T22:11:42.775Z,3.29
2022-12-09T22:14:11.426Z,3.07
2022-12-09T22:16:43.918Z,3.03
2022-12-09T22:19:17.619Z,2.87
2022-12-09T22:21:45.693Z,3.01
2022-12-09T22:24:15.676Z,3.08
2022-12-09T22:26:45.186Z,2.71
2022-12-09T22:29:14.120Z,2.87
2022-12-09T22:31:44.483Z,2.93
2022-12-09T22:34:14.892Z,3.02
2022-12-09T22:36:43.183Z,3.12
2022-12-09T22:39:13.934Z,3.15
2022-12-09T22:41:41.707Z,3.29
2022-12-09T22:44:11.407Z,3.36
2022-12-09T22:46:39.461Z,3.35
2022-12-09T22:49:09.774Z,3.18
2022-12-09T22:51:37.916Z,3.16
2022-12-09T22:54:09.259Z,3.25
2022-12-09T22:56:38.057Z,3.40
2022-12-09T22:59:06.695Z,3.45
2022-12-09T23:01:37.525Z,3.49
2022-12-09T23:04:08.944Z,3.50
2022-12-09T23:06:38.401Z,3.55
2022-12-09T23:09:07.760Z,3.63
2022-12-09T23:11:35.989Z,3.68
2022-12-09T23:14:04.134Z,3.64
2022-12-09T23:16:32.095Z,3.58
2022-12-09T23:19:00.407Z,3.51
2022-12-09T23:21:32.166Z,3.51
2022-12-09T23:24:02.241Z,3.51
2022-12-09T23:26:32.615Z,3.60
2022-12-09T23:29:01.981Z,3.59
2022-12-09T23:31:31.976Z,3.51
2022-12-09T23:34:00.755Z,3.39
2022-12-09T23:36:32.393Z,3.41
2022-12-09T23:39:01.723Z,3.43
2022-12-09T23:41:30.307Z,3.23
2022-12-09T23:43:58.495Z,3.29
2022-12-09T23:46:29.082Z,3.18
2022-12-09T23:48:58.026Z,3.34
2022-12-09T23:51:27.783Z,3.29
2022-12-09T23:53:58.851Z,3.04
2022-12-09T23:56:30.193Z,3.15
2022-12-09T23:59:00.350Z,3.30
